CST,Max TemperatureF,Mean TemperatureF,Min TemperatureF,Max Dew PointF,MeanDew PointF,Min DewpointF,Max Humidity, Mean Humidity, Min Humidity, Max Sea Level PressureIn, Mean Sea Level PressureIn, Min Sea Level PressureIn, Max VisibilityMiles, Mean VisibilityMiles, Min VisibilityMiles, Max Wind SpeedMPH, Mean Wind SpeedMPH, Max Gust SpeedMPH,PrecipitationIn, CloudCover, Events, WindDirDegrees
2013-1-1,60,51,41,55,50,39,100,89,78,30.15,30.04,29.97,10,6,2,20,8,28,1.87,8,Rain,349
2013-1-2,41,38,35,39,34,30,93,88,82,30.27,30.21,30.14,10,7,4,14,8,16,0.00,7,,342
2013-1-3,48,40,32,30,26,22,82,59,36,30.42,30.36,30.28,10,10,10,15,8,20,0.00,0,,350
2013-1-4,53,41,29,33,29,23,92,64,35,30.49,30.42,30.38,10,10,10,12,3,15,0.00,3,,1
2013-1-5,48,41,34,42,37,31,96,75,53,30.41,30.34,30.28,10,9,5,9,2,9,0.15,7,Rain,35
2013-1-6,53,43,32,41,38,30,96,78,59,30.34,30.30,30.26,10,8,2,13,4,17,0.03,5,Rain,5
2013-1-7,57,44,30,36,33,29,96,70,43,30.39,30.29,30.22,10,10,6,10,3,15,0.00,0,,39
2013-1-8,63,50,37,54,46,34,93,77,61,30.25,30.18,30.12,10,10,5,10,4,13,0.09,6,Rain,95
2013-1-9,64,60,56,62,58,55,100,95,90,30.24,30.19,30.15,10,5,2,15,7,21,0.32,8,Rain,94
2013-1-10,69,65,60,65,63,59,97,92,87,30.21,30.10,29.95,10,8,2,31,10,41,0.61,7,Rain-Thunderstorm,161
2013-1-11,69,65,61,66,63,58,100,92,84,30.09,30.03,29.99,10,9,3,14,7,17,0.05,8,Rain,172
2013-1-12,78,73,68,67,66,64,90,80,69,30.03,29.94,29.85,10,10,10,25,15,33,0.02,6,,166
2013-1-13,75,59,42,66,51,37,93,84,74,30.16,29.98,29.79,10,8,1,31,15,40,0.82,8,Rain-Thunderstorm,316
2013-1-14,43,38,33,39,34,30,96,89,82,30.23,30.19,30.13,10,6,1,21,11,26,1.48,8,Rain-Thunderstorm,8
2013-1-15,39,37,35,37,35,33,100,93,85,30.15,30.07,30.03,10,5,1,15,8,18,1.27,8,Rain,354
2013-1-16,36,35,34,34,33,32,96,94,92,30.15,30.10,30.04,10,6,2,14,8,18,0.54,8,Rain,333
2013-1-17,50,41,32,36,32,30,92,71,50,30.45,30.25,30.11,10,7,1,18,8,23,0.24,6,Rain-Snow,318
2013-1-18,57,43,28,35,31,27,100,70,39,30.57,30.48,30.39,10,8,0,16,4,20,0.00,0,Fog,25
2013-1-19,61,45,29,41,35,27,93,70,46,30.40,30.32,30.25,10,10,10,13,2,16,0.00,0,,186
2013-1-20,65,48,31,42,36,30,96,65,34,30.28,30.21,30.15,10,9,4,7,1,9,0.00,0,,13
2013-1-21,58,46,34,43,34,30,100,70,40,30.26,30.22,30.15,10,9,6,15,5,20,0.00,0,,10
2013-1-22,50,41,32,34,26,21,82,59,36,30.40,30.33,30.27,10,10,10,12,3,16,0.00,5,,55
2013-1-23,68,52,35,44,41,31,85,62,39,30.37,30.30,30.24,10,10,10,14,4,17,0.00,4,,201
2013-1-24,67,56,45,55,52,44,93,81,68,30.33,30.26,30.20,10,8,5,9,5,17,0.00,5,,109
2013-1-25,75,64,53,56,53,51,93,71,49,30.21,30.16,30.08,10,10,7,24,9,31,T,6,Rain,219
2013-1-26,54,50,46,52,47,44,100,89,77,30.28,30.24,30.19,10,8,2,10,4,13,0.00,7,,17
2013-1-27,74,61,47,56,50,44,100,75,49,30.30,30.23,30.17,10,8,0,18,8,24,0.00,4,Fog,155
2013-1-28,72,64,56,61,58,54,93,80,66,30.26,30.19,30.11,10,8,4,17,9,20,0.00,6,,161
2013-1-29,78,71,63,65,63,61,93,76,58,30.11,29.92,29.69,10,9,6,31,17,41,0.00,7,,164
2013-1-30,74,57,39,65,45,27,93,71,49,30.13,29.80,29.64,10,9,2,30,11,46,1.09,7,Rain-Thunderstorm,265
2013-1-31,59,45,31,31,27,22,92,58,24,30.28,30.21,30.13,10,10,10,14,5,18,0.00,0,,237